sensor_id;sensor_type;location;lat;lon;timestamp;pressure;altitude;pressure_sealevel;temperature;humidity
15263;BME280;7733;51.554;13.590;2023-12-29T00:01:59;100086.84;;;10.44;74.53
15263;BME280;7733;51.554;13.590;2023-12-29T00:04:26;100091.63;;;10.17;75.10
15263;BME280;7733;51.554;13.590;2023-12-29T00:06:52;100090.53;;;10.32;74.48
15263;BME280;7733;51.554;13.590;2023-12-29T00:09:18;100090.78;;;10.15;75.15
15263;BME280;7733;51.554;13.590;2023-12-29T00:11:50;100089.22;;;10.05;75.48
15263;BME280;7733;51.554;13.590;2023-12-29T00:14:17;100082.00;;;10.18;75.09
15263;BME280;7733;51.554;13.590;2023-12-29T00:16:42;100086.13;;;9.79;76.59
15263;BME280;7733;51.554;13.590;2023-12-29T00:19:10;100076.44;;;9.87;76.28
15263;BME280;7733;51.554;13.590;2023-12-29T00:21:37;100079.84;;;9.90;75.96
15263;BME280;7733;51.554;13.590;2023-12-29T00:24:04;100077.22;;;9.90;76.32
15263;BME280;7733;51.554;13.590;2023-12-29T00:26:30;100080.81;;;9.86;76.86
15263;BME280;7733;51.554;13.590;2023-12-29T00:28:56;100075.50;;;9.89;76.42
15263;BME280;7733;51.554;13.590;2023-12-29T00:31:22;100073.94;;;9.77;76.68
15263;BME280;7733;51.554;13.590;2023-12-29T00:33:47;100067.78;;;9.80;76.59
15263;BME280;7733;51.554;13.590;2023-12-29T00:36:18;100070.47;;;9.75;76.79
15263;BME280;7733;51.554;13.590;2023-12-29T00:38:45;100073.19;;;9.71;76.98
15263;BME280;7733;51.554;13.590;2023-12-29T00:41:10;100065.13;;;9.83;76.55
15263;BME280;7733;51.554;13.590;2023-12-29T00:43:36;100072.97;;;9.85;76.59
15263;BME280;7733;51.554;13.590;2023-12-29T00:46:07;100070.41;;;9.80;76.35
15263;BME280;7733;51.554;13.590;2023-12-29T00:48:34;100067.59;;;9.92;75.91
15263;BME280;7733;51.554;13.590;2023-12-29T00:51:02;100063.84;;;10.07;75.78
15263;BME280;7733;51.554;13.590;2023-12-29T00:53:28;100062.53;;;9.83;76.17
15263;BME280;7733;51.554;13.590;2023-12-29T00:55:55;100058.53;;;9.58;77.22
15263;BME280;7733;51.554;13.590;2023-12-29T00:58:20;100046.03;;;9.75;76.21
15263;BME280;7733;51.554;13.590;2023-12-29T01:00:46;100055.63;;;9.76;76.21
15263;BME280;7733;51.554;13.590;2023-12-29T01:03:12;100060.25;;;9.59;76.98
15263;BME280;7733;51.554;13.590;2023-12-29T01:05:38;100059.16;;;9.73;76.47
15263;BME280;7733;51.554;13.590;2023-12-29T01:08:04;100048.03;;;9.59;76.46
15263;BME280;7733;51.554;13.590;2023-12-29T01:10:30;100047.03;;;9.68;76.92
15263;BME280;7733;51.554;13.590;2023-12-29T01:12:56;100044.34;;;9.72;76.16
15263;BME280;7733;51.554;13.590;2023-12-29T01:15:22;100052.19;;;9.72;75.96
15263;BME280;7733;51.554;13.590;2023-12-29T01:17:47;100034.81;;;9.68;76.50
15263;BME280;7733;51.554;13.590;2023-12-29T01:20:13;100041.47;;;9.88;75.73
15263;BME280;7733;51.554;13.590;2023-12-29T01:22:39;100047.84;;;9.71;76.01
15263;BME280;7733;51.554;13.590;2023-12-29T01:25:05;100039.19;;;9.68;76.36
15263;BME280;7733;51.554;13.590;2023-12-29T01:27:32;100040.06;;;9.68;76.22
15263;BME280;7733;51.554;13.590;2023-12-29T01:29:57;100033.28;;;9.54;76.79
15263;BME280;7733;51.554;13.590;2023-12-29T01:32:23;100041.88;;;9.05;78.49
15263;BME280;7733;51.554;13.590;2023-12-29T01:34:49;100034.38;;;9.42;77.38
15263;BME280;7733;51.554;13.590;2023-12-29T01:37:15;100037.84;;;9.42;77.32
15263;BME280;7733;51.554;13.590;2023-12-29T01:39:40;100043.44;;;9.17;77.85
15263;BME280;7733;51.554;13.590;2023-12-29T01:42:06;100031.88;;;9.33;77.22
15263;BME280;7733;51.554;13.590;2023-12-29T01:44:32;100029.44;;;9.19;77.57
15263;BME280;7733;51.554;13.590;2023-12-29T01:47:04;100024.72;;;9.44;77.03
15263;BME280;7733;51.554;13.590;2023-12-29T01:49:34;100021.50;;;9.27;78.23
15263;BME280;7733;51.554;13.590;2023-12-29T01:52:00;100014.56;;;9.24;77.94
15263;BME280;7733;51.554;13.590;2023-12-29T01:54:35;100010.13;;;9.29;77.83
15263;BME280;7733;51.554;13.590;2023-12-29T01:57:04;99995.97;;;9.42;76.91
15263;BME280;7733;51.554;13.590;2023-12-29T01:59:31;99992.50;;;9.39;77.02
15263;BME280;7733;51.554;13.590;2023-12-29T02:01:57;99984.44;;;9.53;77.08
15263;BME280;7733;51.554;13.590;2023-12-29T02:04:29;99981.88;;;9.50;77.06
15263;BME280;7733;51.554;13.590;2023-12-29T02:06:56;99989.75;;;9.48;77.10
15263;BME280;7733;51.554;13.590;2023-12-29T02:09:22;99976.81;;;9.37;77.91
15263;BME280;7733;51.554;13.590;2023-12-29T02:11:48;99971.22;;;9.62;76.86
15263;BME280;7733;51.554;13.590;2023-12-29T02:14:16;99987.00;;;9.56;77.04
15263;BME280;7733;51.554;13.590;2023-12-29T02:17:16;99966.75;;;9.67;76.81
15263;BME280;7733;51.554;13.590;2023-12-29T02:19:47;99972.19;;;9.55;76.74
15263;BME280;7733;51.554;13.590;2023-12-29T02:22:15;99966.78;;;9.65;76.90
15263;BME280;7733;51.554;13.590;2023-12-29T02:24:49;99969.25;;;9.73;76.28
15263;BME280;7733;51.554;13.590;2023-12-29T02:27:41;99966.88;;;9.59;76.53
15263;BME280;7733;51.554;13.590;2023-12-29T02:33:05;99964.09;;;9.70;76.21
15263;BME280;7733;51.554;13.590;2023-12-29T02:35:35;99977.13;;;9.73;76.29
15263;BME280;7733;51.554;13.590;2023-12-29T02:38:03;99964.97;;;9.69;76.48
15263;BME280;7733;51.554;13.590;2023-12-29T02:40:29;99971.22;;;9.62;76.22
15263;BME280;7733;51.554;13.590;2023-12-29T02:42:55;99966.56;;;9.77;76.11
15263;BME280;7733;51.554;13.590;2023-12-29T02:45:24;99958.84;;;9.70;76.45
15263;BME280;7733;51.554;13.590;2023-12-29T02:47:50;99955.34;;;9.71;76.57
15263;BME280;7733;51.554;13.590;2023-12-29T02:50:16;99948.31;;;9.73;76.14
15263;BME280;7733;51.554;13.590;2023-12-29T02:52:42;99944.91;;;9.68;76.39
15263;BME280;7733;51.554;13.590;2023-12-29T02:55:08;99932.09;;;9.51;77.01
15263;BME280;7733;51.554;13.590;2023-12-29T02:57:34;99929.34;;;9.59;77.04
15263;BME280;7733;51.554;13.590;2023-12-29T02:59:59;99928.28;;;9.70;76.73
15263;BME280;7733;51.554;13.590;2023-12-29T03:02:25;99923.91;;;9.71;76.44
15263;BME280;7733;51.554;13.590;2023-12-29T03:04:51;99933.19;;;9.89;76.08
15263;BME280;7733;51.554;13.590;2023-12-29T03:07:17;99924.69;;;9.76;76.10
15263;BME280;7733;51.554;13.590;2023-12-29T03:09:43;99913.25;;;9.80;76.07
15263;BME280;7733;51.554;13.590;2023-12-29T03:12:08;99901.09;;;9.76;76.07
15263;BME280;7733;51.554;13.590;2023-12-29T03:14:35;99891.25;;;9.90;75.35
15263;BME280;7733;51.554;13.590;2023-12-29T03:17:00;99913.06;;;9.91;75.31
15263;BME280;7733;51.554;13.590;2023-12-29T03:19:26;99912.91;;;9.98;75.00
15263;BME280;7733;51.554;13.590;2023-12-29T03:21:52;99921.91;;;9.85;75.55
15263;BME280;7733;51.554;13.590;2023-12-29T03:24:20;99911.78;;;10.12;74.69
15263;BME280;7733;51.554;13.590;2023-12-29T03:26:45;99916.41;;;9.97;75.16
15263;BME280;7733;51.554;13.590;2023-12-29T03:29:11;99910.19;;;10.04;74.38
15263;BME280;7733;51.554;13.590;2023-12-29T03:31:37;99891.31;;;9.87;75.21
15263;BME280;7733;51.554;13.590;2023-12-29T03:34:03;99898.91;;;9.99;74.98
15263;BME280;7733;51.554;13.590;2023-12-29T03:36:29;99888.69;;;9.87;75.11
15263;BME280;7733;51.554;13.590;2023-12-29T03:38:55;99889.31;;;9.98;74.93
15263;BME280;7733;51.554;13.590;2023-12-29T03:41:20;99895.66;;;9.88;74.95
15263;BME280;7733;51.554;13.590;2023-12-29T03:43:46;99895.28;;;10.06;74.60
15263;BME280;7733;51.554;13.590;2023-12-29T03:46:20;99896.28;;;9.99;74.81
15263;BME280;7733;51.554;13.590;2023-12-29T03:48:46;99875.63;;;9.86;75.21
15263;BME280;7733;51.554;13.590;2023-12-29T03:51:13;99861.34;;;10.02;74.79
15263;BME280;7733;51.554;13.590;2023-12-29T03:53:39;99868.50;;;9.92;75.07
15263;BME280;7733;51.554;13.590;2023-12-29T03:56:12;99865.81;;;9.95;74.86
15263;BME280;7733;51.554;13.590;2023-12-29T03:58:38;99861.31;;;10.03;74.80
15263;BME280;7733;51.554;13.590;2023-12-29T04:01:04;99871.19;;;9.89;75.03
15263;BME280;7733;51.554;13.590;2023-12-29T04:03:29;99877.25;;;9.91;74.97
15263;BME280;7733;51.554;13.590;2023-12-29T04:05:55;99860.53;;;9.97;74.47
15263;BME280;7733;51.554;13.590;2023-12-29T04:08:21;99867.22;;;10.12;74.22
15263;BME280;7733;51.554;13.590;2023-12-29T04:10:47;99866.56;;;10.02;74.14
15263;BME280;7733;51.554;13.590;2023-12-29T04:13:12;99873.56;;;10.01;74.08
15263;BME280;7733;51.554;13.590;2023-12-29T04:15:38;99858.06;;;10.34;73.20
15263;BME280;7733;51.554;13.590;2023-12-29T04:18:04;99869.00;;;10.11;73.54
15263;BME280;7733;51.554;13.590;2023-12-29T04:20:30;99881.06;;;10.21;73.68
15263;BME280;7733;51.554;13.590;2023-12-29T04:22:56;99867.16;;;10.15;73.49
15263;BME280;7733;51.554;13.590;2023-12-29T04:25:21;99861.66;;;10.30;72.68
15263;BME280;7733;51.554;13.590;2023-12-29T04:27:47;99857.91;;;10.40;72.96
15263;BME280;7733;51.554;13.590;2023-12-29T04:30:13;99856.69;;;10.15;73.74
15263;BME280;7733;51.554;13.590;2023-12-29T04:32:39;99846.09;;;10.21;73.30
15263;BME280;7733;51.554;13.590;2023-12-29T04:35:05;99852.09;;;10.27;73.09
15263;BME280;7733;51.554;13.590;2023-12-29T04:37:31;99863.50;;;10.25;73.17
15263;BME280;7733;51.554;13.590;2023-12-29T04:39:57;99860.56;;;10.39;73.11
15263;BME280;7733;51.554;13.590;2023-12-29T04:42:22;99863.13;;;10.43;72.88
15263;BME280;7733;51.554;13.590;2023-12-29T04:44:48;99858.47;;;10.13;73.39
15263;BME280;7733;51.554;13.590;2023-12-29T04:47:14;99862.06;;;10.09;73.88
15263;BME280;7733;51.554;13.590;2023-12-29T04:49:39;99848.34;;;10.38;72.98
15263;BME280;7733;51.554;13.590;2023-12-29T04:52:05;99838.03;;;10.31;73.28
15263;BME280;7733;51.554;13.590;2023-12-29T04:54:31;99846.06;;;10.24;73.37
15263;BME280;7733;51.554;13.590;2023-12-29T04:56:56;99846.84;;;10.27;73.33
15263;BME280;7733;51.554;13.590;2023-12-29T04:59:22;99848.59;;;10.27;73.36
15263;BME280;7733;51.554;13.590;2023-12-29T05:01:48;99862.66;;;10.24;73.29
15263;BME280;7733;51.554;13.590;2023-12-29T05:04:13;99860.75;;;10.31;73.43
15263;BME280;7733;51.554;13.590;2023-12-29T05:06:40;99861.81;;;10.22;73.37
15263;BME280;7733;51.554;13.590;2023-12-29T05:09:06;99871.63;;;10.11;73.38
15263;BME280;7733;51.554;13.590;2023-12-29T05:11:32;99868.81;;;10.19;73.51
15263;BME280;7733;51.554;13.590;2023-12-29T05:13:58;99858.13;;;10.31;73.39
15263;BME280;7733;51.554;13.590;2023-12-29T05:16:23;99860.00;;;10.26;73.39
15263;BME280;7733;51.554;13.590;2023-12-29T05:18:49;99860.94;;;10.20;73.79
15263;BME280;7733;51.554;13.590;2023-12-29T05:21:19;99870.75;;;10.11;73.98
15263;BME280;7733;51.554;13.590;2023-12-29T05:23:45;99877.94;;;9.99;74.40
15263;BME280;7733;51.554;13.590;2023-12-29T05:26:12;99872.69;;;10.02;74.28
15263;BME280;7733;51.554;13.590;2023-12-29T05:28:37;99869.91;;;10.09;74.07
15263;BME280;7733;51.554;13.590;2023-12-29T05:31:03;99868.13;;;10.11;74.58
15263;BME280;7733;51.554;13.590;2023-12-29T05:33:33;99863.00;;;10.06;74.56
15263;BME280;7733;51.554;13.590;2023-12-29T05:36:05;99862.06;;;10.09;74.50
15263;BME280;7733;51.554;13.590;2023-12-29T05:38:31;99864.72;;;10.07;74.61
15263;BME280;7733;51.554;13.590;2023-12-29T05:40:57;99863.56;;;10.22;74.57
15263;BME280;7733;51.554;13.590;2023-12-29T05:43:23;99869.44;;;10.33;73.88
15263;BME280;7733;51.554;13.590;2023-12-29T05:45:48;99867.16;;;10.15;74.47
15263;BME280;7733;51.554;13.590;2023-12-29T05:48:14;99862.69;;;10.23;74.44
15263;BME280;7733;51.554;13.590;2023-12-29T05:50:40;99858.28;;;10.25;73.98
15263;BME280;7733;51.554;13.590;2023-12-29T05:53:06;99870.25;;;10.35;73.97
15263;BME280;7733;51.554;13.590;2023-12-29T05:55:32;99867.06;;;10.21;74.66
15263;BME280;7733;51.554;13.590;2023-12-29T05:57:58;99872.28;;;10.24;74.23
15263;BME280;7733;51.554;13.590;2023-12-29T06:00:23;99860.06;;;10.23;74.28
15263;BME280;7733;51.554;13.590;2023-12-29T06:02:49;99852.94;;;10.28;74.28
15263;BME280;7733;51.554;13.590;2023-12-29T06:05:16;99856.44;;;10.28;74.02
15263;BME280;7733;51.554;13.590;2023-12-29T06:07:41;99856.47;;;10.27;73.88
15263;BME280;7733;51.554;13.590;2023-12-29T06:10:08;99857.41;;;10.24;73.54
15263;BME280;7733;51.554;13.590;2023-12-29T06:12:35;99857.88;;;10.43;72.89
15263;BME280;7733;51.554;13.590;2023-12-29T06:15:02;99851.91;;;10.35;72.64
15263;BME280;7733;51.554;13.590;2023-12-29T06:17:27;99854.03;;;10.58;71.73
15263;BME280;7733;51.554;13.590;2023-12-29T06:19:53;99864.84;;;10.44;72.24
15263;BME280;7733;51.554;13.590;2023-12-29T06:22:19;99858.38;;;10.59;71.68
15263;BME280;7733;51.554;13.590;2023-12-29T06:24:45;99855.72;;;10.60;71.40
15263;BME280;7733;51.554;13.590;2023-12-29T06:27:11;99856.94;;;10.46;71.89
15263;BME280;7733;51.554;13.590;2023-12-29T06:29:38;99850.84;;;10.45;71.89
15263;BME280;7733;51.554;13.590;2023-12-29T06:32:04;99843.03;;;10.41;71.83
15263;BME280;7733;51.554;13.590;2023-12-29T06:34:30;99828.91;;;10.48;71.67
15263;BME280;7733;51.554;13.590;2023-12-29T06:36:56;99827.28;;;10.44;71.94
15263;BME280;7733;51.554;13.590;2023-12-29T06:39:22;99825.03;;;10.27;72.42
15263;BME280;7733;51.554;13.590;2023-12-29T06:41:48;99834.47;;;10.34;71.90
15263;BME280;7733;51.554;13.590;2023-12-29T06:44:14;99829.00;;;10.45;71.52
15263;BME280;7733;51.554;13.590;2023-12-29T06:46:40;99828.06;;;10.47;71.17
15263;BME280;7733;51.554;13.590;2023-12-29T06:49:08;99837.16;;;10.31;71.47
15263;BME280;7733;51.554;13.590;2023-12-29T06:51:35;99836.06;;;10.40;71.05
15263;BME280;7733;51.554;13.590;2023-12-29T06:54:06;99841.53;;;10.69;70.02
15263;BME280;7733;51.554;13.590;2023-12-29T06:56:32;99841.06;;;10.52;70.30
15263;BME280;7733;51.554;13.590;2023-12-29T06:58:58;99845.94;;;10.69;69.93
15263;BME280;7733;51.554;13.590;2023-12-29T07:01:24;99842.91;;;10.85;69.34
15263;BME280;7733;51.554;13.590;2023-12-29T07:03:50;99835.13;;;10.81;69.79
15263;BME280;7733;51.554;13.590;2023-12-29T07:06:16;99840.78;;;10.64;69.66
15263;BME280;7733;51.554;13.590;2023-12-29T07:08:42;99846.91;;;10.64;70.08
15263;BME280;7733;51.554;13.590;2023-12-29T07:11:11;99837.69;;;10.84;69.50
15263;BME280;7733;51.554;13.590;2023-12-29T07:13:37;99835.06;;;10.84;69.11
15263;BME280;7733;51.554;13.590;2023-12-29T07:16:04;99834.53;;;10.70;69.34
15263;BME280;7733;51.554;13.590;2023-12-29T07:18:30;99832.97;;;10.62;69.79
15263;BME280;7733;51.554;13.590;2023-12-29T07:20:56;99834.25;;;10.82;69.11
15263;BME280;7733;51.554;13.590;2023-12-29T07:23:21;99844.13;;;10.71;69.67
15263;BME280;7733;51.554;13.590;2023-12-29T07:25:48;99850.28;;;10.70;69.82
15263;BME280;7733;51.554;13.590;2023-12-29T07:28:14;99857.06;;;10.78;69.19
15263;BME280;7733;51.554;13.590;2023-12-29T07:30:40;99851.66;;;10.86;69.04
15263;BME280;7733;51.554;13.590;2023-12-29T07:33:06;99850.78;;;10.85;69.34
15263;BME280;7733;51.554;13.590;2023-12-29T07:35:31;99856.38;;;10.70;69.65
15263;BME280;7733;51.554;13.590;2023-12-29T07:37:57;99850.13;;;10.76;69.57
15263;BME280;7733;51.554;13.590;2023-12-29T07:40:23;99855.13;;;10.86;69.12
15263;BME280;7733;51.554;13.590;2023-12-29T07:42:49;99855.47;;;10.71;69.35
15263;BME280;7733;51.554;13.590;2023-12-29T07:45:17;99855.38;;;10.76;69.04
15263;BME280;7733;51.554;13.590;2023-12-29T07:47:43;99849.53;;;11.00;68.65
15263;BME280;7733;51.554;13.590;2023-12-29T07:50:09;99844.59;;;10.88;68.89
15263;BME280;7733;51.554;13.590;2023-12-29T07:52:35;99841.22;;;10.83;68.80
15263;BME280;7733;51.554;13.590;2023-12-29T07:55:00;99839.69;;;10.73;69.19
15263;BME280;7733;51.554;13.590;2023-12-29T07:57:26;99851.50;;;10.92;68.85
15263;BME280;7733;51.554;13.590;2023-12-29T07:59:52;99852.97;;;10.66;69.50
15263;BME280;7733;51.554;13.590;2023-12-29T08:02:18;99864.13;;;10.75;69.12
15263;BME280;7733;51.554;13.590;2023-12-29T08:04:43;99855.16;;;10.85;69.46
15263;BME280;7733;51.554;13.590;2023-12-29T08:07:12;99852.44;;;10.89;69.05
15263;BME280;7733;51.554;13.590;2023-12-29T08:09:37;99862.13;;;10.86;69.06
15263;BME280;7733;51.554;13.590;2023-12-29T08:12:04;99854.94;;;10.94;68.92
15263;BME280;7733;51.554;13.590;2023-12-29T08:14:29;99846.78;;;11.06;68.50
15263;BME280;7733;51.554;13.590;2023-12-29T08:16:55;99858.38;;;10.96;69.11
15263;BME280;7733;51.554;13.590;2023-12-29T08:19:22;99856.34;;;11.09;68.66
15263;BME280;7733;51.554;13.590;2023-12-29T08:21:48;99851.13;;;11.07;68.78
15263;BME280;7733;51.554;13.590;2023-12-29T08:24:14;99854.72;;;11.03;68.55
15263;BME280;7733;51.554;13.590;2023-12-29T08:26:47;99854.78;;;11.00;68.86
15263;BME280;7733;51.554;13.590;2023-12-29T08:29:14;99849.34;;;11.43;67.52
15263;BME280;7733;51.554;13.590;2023-12-29T08:31:42;99848.16;;;11.19;68.20
15263;BME280;7733;51.554;13.590;2023-12-29T08:34:08;99842.72;;;11.28;67.96
15263;BME280;7733;51.554;13.590;2023-12-29T08:36:34;99846.66;;;11.11;68.59
15263;BME280;7733;51.554;13.590;2023-12-29T08:39:01;99842.50;;;11.36;67.95
15263;BME280;7733;51.554;13.590;2023-12-29T08:41:27;99842.50;;;11.36;68.22
15263;BME280;7733;51.554;13.590;2023-12-29T08:43:53;99858.34;;;11.33;68.43
15263;BME280;7733;51.554;13.590;2023-12-29T08:46:19;99862.69;;;11.34;68.73
15263;BME280;7733;51.554;13.590;2023-12-29T08:48:45;99861.56;;;11.44;68.13
15263;BME280;7733;51.554;13.590;2023-12-29T08:51:11;99861.16;;;11.25;68.58
15263;BME280;7733;51.554;13.590;2023-12-29T08:53:37;99854.88;;;11.31;69.13
15263;BME280;7733;51.554;13.590;2023-12-29T08:56:03;99860.69;;;11.44;69.17
15263;BME280;7733;51.554;13.590;2023-12-29T08:58:29;99862.22;;;11.52;68.46
15263;BME280;7733;51.554;13.590;2023-12-29T09:00:56;99862.25;;;11.51;68.71
15263;BME280;7733;51.554;13.590;2023-12-29T09:03:21;99869.41;;;11.46;68.83
15263;BME280;7733;51.554;13.590;2023-12-29T09:05:47;99874.56;;;11.49;68.97
15263;BME280;7733;51.554;13.590;2023-12-29T09:08:13;99881.09;;;11.33;69.47
15263;BME280;7733;51.554;13.590;2023-12-29T09:10:39;99870.38;;;11.74;68.48
15263;BME280;7733;51.554;13.590;2023-12-29T09:13:05;99863.66;;;11.64;68.92
15263;BME280;7733;51.554;13.590;2023-12-29T09:15:31;99872.09;;;11.75;68.96
15263;BME280;7733;51.554;13.590;2023-12-29T09:17:56;99872.63;;;11.90;68.23
15263;BME280;7733;51.554;13.590;2023-12-29T09:20:22;99883.78;;;11.98;68.62
15263;BME280;7733;51.554;13.590;2023-12-29T09:22:48;99889.38;;;11.85;68.67
15263;BME280;7733;51.554;13.590;2023-12-29T09:25:14;99895.00;;;11.70;69.19
15263;BME280;7733;51.554;13.590;2023-12-29T09:27:39;99903.47;;;11.83;68.87
15263;BME280;7733;51.554;13.590;2023-12-29T09:30:06;99897.69;;;12.03;68.76
15263;BME280;7733;51.554;13.590;2023-12-29T09:32:32;99880.81;;;12.10;68.34
15263;BME280;7733;51.554;13.590;2023-12-29T09:34:58;99887.88;;;11.75;69.40
15263;BME280;7733;51.554;13.590;2023-12-29T09:37:23;99880.38;;;11.94;69.51
15263;BME280;7733;51.554;13.590;2023-12-29T09:39:49;99895.78;;;12.08;68.92
15263;BME280;7733;51.554;13.590;2023-12-29T09:42:21;99889.47;;;11.82;69.29
15263;BME280;7733;51.554;13.590;2023-12-29T09:44:51;99889.47;;;12.13;68.82
15263;BME280;7733;51.554;13.590;2023-12-29T09:47:23;99889.19;;;12.24;68.51
15263;BME280;7733;51.554;13.590;2023-12-29T09:49:51;99883.78;;;12.29;68.48
15263;BME280;7733;51.554;13.590;2023-12-29T09:52:20;99865.84;;;12.12;68.78
15263;BME280;7733;51.554;13.590;2023-12-29T09:54:49;99879.63;;;12.20;68.78
15263;BME280;7733;51.554;13.590;2023-12-29T09:57:18;99890.47;;;12.39;68.13
15263;BME280;7733;51.554;13.590;2023-12-29T09:59:45;99874.75;;;12.37;68.22
15263;BME280;7733;51.554;13.590;2023-12-29T10:02:14;99878.94;;;12.44;67.65
15263;BME280;7733;51.554;13.590;2023-12-29T10:04:43;99885.78;;;12.50;67.50
15263;BME280;7733;51.554;13.590;2023-12-29T10:07:23;99877.03;;;12.49;68.02
15263;BME280;7733;51.554;13.590;2023-12-29T10:09:56;99888.00;;;12.64;67.49
15263;BME280;7733;51.554;13.590;2023-12-29T10:12:24;99886.44;;;12.57;67.90
15263;BME280;7733;51.554;13.590;2023-12-29T10:15:11;99870.84;;;12.78;67.45
15263;BME280;7733;51.554;13.590;2023-12-29T10:20:56;99883.81;;;12.57;67.65
15263;BME280;7733;51.554;13.590;2023-12-29T10:23:32;99882.28;;;12.49;68.05
15263;BME280;7733;51.554;13.590;2023-12-29T10:26:03;99880.09;;;12.64;68.01
15263;BME280;7733;51.554;13.590;2023-12-29T10:28:29;99886.72;;;12.47;68.38
15263;BME280;7733;51.554;13.590;2023-12-29T10:30:55;99881.47;;;12.47;68.33
15263;BME280;7733;51.554;13.590;2023-12-29T10:33:21;99868.75;;;12.32;68.81
15263;BME280;7733;51.554;13.590;2023-12-29T10:36:02;99871.44;;;12.31;68.65
15263;BME280;7733;51.554;13.590;2023-12-29T10:38:30;99877.69;;;12.56;68.28
15263;BME280;7733;51.554;13.590;2023-12-29T10:41:17;99860.94;;;12.31;69.27
15263;BME280;7733;51.554;13.590;2023-12-29T10:43:46;99866.53;;;12.48;69.16
15263;BME280;7733;51.554;13.590;2023-12-29T10:46:20;99850.25;;;12.65;68.90
15263;BME280;7733;51.554;13.590;2023-12-29T10:48:46;99861.44;;;12.43;68.71
15263;BME280;7733;51.554;13.590;2023-12-29T10:51:12;99862.41;;;12.69;68.30
15263;BME280;7733;51.554;13.590;2023-12-29T10:53:38;99859.81;;;12.67;68.48
15263;BME280;7733;51.554;13.590;2023-12-29T10:56:04;99853.94;;;12.87;68.03
15263;BME280;7733;51.554;13.590;2023-12-29T10:58:30;99859.41;;;12.52;68.31
15263;BME280;7733;51.554;13.590;2023-12-29T11:00:58;99861.34;;;12.74;68.03
15263;BME280;7733;51.554;13.590;2023-12-29T11:03:25;99860.09;;;12.86;67.65
15263;BME280;7733;51.554;13.590;2023-12-29T11:05:58;99874.66;;;12.70;68.01
15263;BME280;7733;51.554;13.590;2023-12-29T11:08:27;99855.66;;;12.88;67.47
15263;BME280;7733;51.554;13.590;2023-12-29T11:10:54;99865.03;;;12.69;68.24
15263;BME280;7733;51.554;13.590;2023-12-29T11:13:21;99856.84;;;12.78;67.25
15263;BME280;7733;51.554;13.590;2023-12-29T11:15:48;99864.13;;;12.70;67.62
15263;BME280;7733;51.554;13.590;2023-12-29T11:18:16;99864.78;;;12.76;67.41
15263;BME280;7733;51.554;13.590;2023-12-29T11:20:44;99849.56;;;12.58;67.73
15263;BME280;7733;51.554;13.590;2023-12-29T11:23:11;99852.69;;;12.71;67.51
15263;BME280;7733;51.554;13.590;2023-12-29T11:25:44;99844.94;;;12.66;67.80
15263;BME280;7733;51.554;13.590;2023-12-29T11:28:14;99840.94;;;12.81;67.32
15263;BME280;7733;51.554;13.590;2023-12-29T11:30:40;99837.66;;;12.74;67.44
15263;BME280;7733;51.554;13.590;2023-12-29T11:33:14;99827.19;;;12.73;67.06
15263;BME280;7733;51.554;13.590;2023-12-29T11:36:00;99843.88;;;12.98;66.55
15263;BME280;7733;51.554;13.590;2023-12-29T11:43:39;99827.50;;;13.17;66.00
15263;BME280;7733;51.554;13.590;2023-12-29T11:46:04;99839.03;;;13.13;66.30
15263;BME280;7733;51.554;13.590;2023-12-29T11:51:39;99822.22;;;13.17;65.74
15263;BME280;7733;51.554;13.590;2023-12-29T11:54:06;99827.72;;;13.10;65.53
15263;BME280;7733;51.554;13.590;2023-12-29T11:56:41;99828.63;;;13.09;65.63
15263;BME280;7733;51.554;13.590;2023-12-29T11:59:14;99828.09;;;13.26;65.98
15263;BME280;7733;51.554;13.590;2023-12-29T12:01:41;99813.47;;;13.16;66.23
15263;BME280;7733;51.554;13.590;2023-12-29T12:04:43;99817.28;;;13.07;66.42
15263;BME280;7733;51.554;13.590;2023-12-29T12:12:56;99802.78;;;13.47;65.01
15263;BME280;7733;51.554;13.590;2023-12-29T12:18:03;99785.94;;;13.51;65.04
15263;BME280;7733;51.554;13.590;2023-12-29T12:20:31;99810.81;;;13.16;65.48
15263;BME280;7733;51.554;13.590;2023-12-29T12:23:06;99768.69;;;13.16;65.33
15263;BME280;7733;51.554;13.590;2023-12-29T12:25:35;99771.00;;;13.27;64.97
15263;BME280;7733;51.554;13.590;2023-12-29T12:28:09;99778.47;;;13.39;65.12
15263;BME280;7733;51.554;13.590;2023-12-29T12:30:35;99778.53;;;13.62;64.71
15263;BME280;7733;51.554;13.590;2023-12-29T12:33:03;99777.47;;;13.43;65.51
15263;BME280;7733;51.554;13.590;2023-12-29T12:35:29;99779.59;;;13.57;64.86
15263;BME280;7733;51.554;13.590;2023-12-29T12:38:13;99785.19;;;13.48;65.48
15263;BME280;7733;51.554;13.590;2023-12-29T12:40:39;99787.38;;;13.35;65.71
15263;BME280;7733;51.554;13.590;2023-12-29T12:43:06;99795.06;;;13.41;65.55
15263;BME280;7733;51.554;13.590;2023-12-29T12:45:47;99795.63;;;13.26;66.12
15263;BME280;7733;51.554;13.590;2023-12-29T12:48:41;99787.56;;;13.30;65.86
15263;BME280;7733;51.554;13.590;2023-12-29T12:51:10;99793.91;;;13.25;66.19
15263;BME280;7733;51.554;13.590;2023-12-29T12:53:42;99793.91;;;13.25;66.23
15263;BME280;7733;51.554;13.590;2023-12-29T12:56:13;99791.41;;;13.20;66.96
15263;BME280;7733;51.554;13.590;2023-12-29T12:58:40;99784.66;;;13.12;66.51
15263;BME280;7733;51.554;13.590;2023-12-29T13:01:06;99786.69;;;13.30;66.54
15263;BME280;7733;51.554;13.590;2023-12-29T13:03:32;99785.47;;;13.14;66.91
15263;BME280;7733;51.554;13.590;2023-12-29T13:06:00;99783.84;;;13.09;67.51
15263;BME280;7733;51.554;13.590;2023-12-29T13:08:26;99776.56;;;13.18;67.67
15263;BME280;7733;51.554;13.590;2023-12-29T13:10:53;99771.94;;;12.98;67.96
15263;BME280;7733;51.554;13.590;2023-12-29T13:13:19;99762.16;;;13.03;67.85
15263;BME280;7733;51.554;13.590;2023-12-29T13:15:50;99756.03;;;13.02;67.52
15263;BME280;7733;51.554;13.590;2023-12-29T13:18:16;99760.16;;;13.09;67.19
15263;BME280;7733;51.554;13.590;2023-12-29T13:20:47;99756.69;;;13.34;66.83
15263;BME280;7733;51.554;13.590;2023-12-29T13:23:14;99758.69;;;13.27;66.82
15263;BME280;7733;51.554;13.590;2023-12-29T13:25:43;99748.81;;;13.07;67.16
15263;BME280;7733;51.554;13.590;2023-12-29T13:28:09;99754.28;;;13.28;66.96